Eemslift Nelli — PCUT — position and weather

sailwx.info

Track history (hours):
 
Tides and Currents Weather Stations Pressure Air Temp Water Temp Dewpoint Dewpoint Depression Visibility Wind Speed Wind Dir Waves Ship Positions

Eemslift Nelli

Last reported at 2017-Nov-22 22:53 UTC. Time now 2017-Nov-23 03:25 UTC.
Position N 43°51' W 008°04'.

Length 111 m; draft 5.6 m.

Type: Cargo ship. MMSI: 244790607.

Date/timePositionNaut miles runAvg speedWind from/ knotsBaromVisibWave heightAir tempDewpointWater temp
2017-Nov-22 22:53N 43°51' W 008°04'411.0
2017-Nov-22 22:30N 43°51' W 007°58'611.1
2017-Nov-22 21:56N 43°52' W 007°50'511.4
2017-Nov-22 21:30N 43°52' W 007°43'612.5
2017-Nov-22 21:00N 43°52' W 007°34'713.1
2017-Nov-22 20:30N 43°52' W 007°25'713.1
2017-Nov-22 20:00N 43°52' W 007°16'611.6
2017-Nov-22 19:30N 43°52' W 007°08'  
2017-Nov-20 00:29N 48°05' W 005°55'612.2
2017-Nov-19 23:58N 48°11' W 005°56'612.6
2017-Nov-19 23:28N 48°18' W 005°57'613.0
2017-Nov-19 22:59N 48°24' W 005°56'613.2
2017-Nov-19 22:30N 48°30' W 005°56'713.6
2017-Nov-19 21:59N 48°37' W 005°56'713.6
2017-Nov-19 21:30N 48°44' W 005°54'714.0
2017-Nov-19 21:00N 48°50' W 005°49'713.2
2017-Nov-19 20:29N 48°55' W 005°42'713.3
2017-Nov-19 19:58N 48°58' W 005°33'712.9
2017-Nov-19 19:26N 49°01' W 005°24'612.5
2017-Nov-19 18:58N 49°04' W 005°16'611.8
2017-Nov-19 18:28N 49°07' W 005°08'611.6
2017-Nov-19 17:57N 49°09' W 004°60'1611.1
2017-Nov-19 16:30N 49°18' W 004°38'511.1
2017-Nov-19 16:00N 49°21' W 004°31'1011.5
2017-Nov-19 15:07N 49°26' W 004°18'3913.5
2017-Nov-19 12:16N 49°47' W 003°28'414.3
2017-Nov-19 12:00N 49°49' W 003°23'814.1
2017-Nov-19 11:27N 49°52' W 003°12'613.7
2017-Nov-19 11:01N 49°56' W 003°04'713.2
2017-Nov-19 10:30N 49°59' W 002°55'612.6
2017-Nov-19 10:00N 50°01' W 002°46'611.9
2017-Nov-19 09:30N 50°03' W 002°37'611.1
2017-Nov-19 08:56N 50°05' W 002°28'1110.2
2017-Nov-19 07:51N 50°09' W 002°12'5 9.8
2017-Nov-19 07:23N 50°10' W 002°05'410.0
2017-Nov-19 07:00N 50°10' W 001°59'510.7
2017-Nov-19 06:30N 50°12' W 001°51'611.2
2017-Nov-19 06:00N 50°13' W 001°42'611.9
2017-Nov-19 05:30N 50°14' W 001°33'612.9
2017-Nov-19 05:00N 50°16' W 001°23'3715.3
2017-Nov-19 02:38N 50°26' W 000°28'215.1
2017-Nov-19 02:30N 50°26' W 000°25'714.6
2017-Nov-19 02:00N 50°28' W 000°14'714.3
2017-Nov-19 01:30N 50°30' W 000°03'713.9
2017-Nov-19 01:00N 50°32' E 000°07'713.7
2017-Nov-19 00:30N 50°33' E 000°18'713.2
2017-Nov-19 00:00N 50°35' E 000°28'612.6
2017-Nov-18 23:31N 50°37' E 000°37'612.4
2017-Nov-18 23:00N 50°41' E 000°45'612.2
2017-Nov-18 22:30N 50°44' E 000°53'611.9
2017-Nov-18 22:01N 50°47' E 001°01'612.1
2017-Nov-18 21:30N 50°50' E 001°09'712.8
2017-Nov-18 20:58N 50°55' E 001°18'714.5
2017-Nov-18 20:30N 50°60' E 001°24'816.0
2017-Nov-18 20:00N 51°05' E 001°33'815.8
2017-Nov-18 19:30N 51°11' E 001°42'815.2
2017-Nov-18 19:00N 51°17' E 001°50'714.2
2017-Nov-18 18:30N 51°23' E 001°57'510.1
2017-Nov-18 18:00N 51°23' E 002°05'613.0
2017-Nov-18 17:30N 51°20' E 002°14'611.9
2017-Nov-18 17:00N 51°21' E 002°23'612.1
2017-Nov-18 16:30N 51°23' E 002°33'712.8
2017-Nov-18 15:59N 51°22' E 002°44'612.4
2017-Nov-18 15:30N 51°24' E 002°53'713.0
2017-Nov-18 15:00N 51°25' E 003°03'612.9
2017-Nov-18 14:30N 51°25' E 003°13'612.9
2017-Nov-18 14:00N 51°25' E 003°24'612.7
2017-Nov-18 13:30N 51°26' E 003°34'4 7.9
2017-Nov-18 13:00N 51°26' E 003°40'510.3
2017-Nov-18 12:30N 51°22' E 003°45'510.9
2017-Nov-18 12:00N 51°21' E 003°53'611.2
2017-Nov-18 11:30N 51°26' E 003°59'510.0
2017-Nov-18 11:00N 51°22' E 004°04'510.9
2017-Nov-18 10:30N 51°23' E 004°13'4 7.4
2017-Nov-18 10:00N 51°21' E 004°17'0 0.0
2017-Nov-18 09:31N 51°21' E 004°17'1 1.7
2017-Nov-18 09:00N 51°20' E 004°18'3 6.0
2017-Nov-18 08:30N 51°18' E 004°20'3 6.0
2017-Nov-18 08:00N 51°15' E 004°22'0 0.1
2017-Nov-18 07:26N 51°15' E 004°22'0 0.0
2017-Nov-18 06:59N 51°15' E 004°22'0 0.0
2017-Nov-18 06:29N 51°15' E 004°22'0 0.0
2017-Nov-18 05:59N 51°15' E 004°22'0 0.0
2017-Nov-18 05:29N 51°15' E 004°22'0 0.0
2017-Nov-18 04:59N 51°15' E 004°22'0 0.0
2017-Nov-18 04:29N 51°15' E 004°22'0 0.0
2017-Nov-18 03:59N 51°15' E 004°22'0 0.0
2017-Nov-18 03:29N 51°15' E 004°22'0 0.0
2017-Nov-18 02:59N 51°15' E 004°22'0 0.0
2017-Nov-18 02:29N 51°15' E 004°22'0 0.0
2017-Nov-18 01:59N 51°15' E 004°22'0 0.0
2017-Nov-18 01:29N 51°15' E 004°22'0 0.0
2017-Nov-18 00:59N 51°15' E 004°22'0 0.0
2017-Nov-18 00:29N 51°15' E 004°22'0 0.0
2017-Nov-17 23:59N 51°15' E 004°22'0 0.0
2017-Nov-17 23:29N 51°15' E 004°22'0 0.0
2017-Nov-17 22:59N 51°15' E 004°22'0 0.0
2017-Nov-17 22:29N 51°15' E 004°22'0 0.0
2017-Nov-17 21:59N 51°15' E 004°22'0 0.0
2017-Nov-17 21:29N 51°15' E 004°22'0 0.0
2017-Nov-17 20:59N 51°15' E 004°22'0 0.0
2017-Nov-17 20:29N 51°15' E 004°22'0 0.0
2017-Nov-17 19:59N 51°15' E 004°22'0 0.0
2017-Nov-17 19:29N 51°15' E 004°22'0 0.0
2017-Nov-17 18:59N 51°15' E 004°22'0 0.0
2017-Nov-17 18:29N 51°15' E 004°22'0 0.0
2017-Nov-17 17:59N 51°15' E 004°22'0 0.0
2017-Nov-17 17:29N 51°15' E 004°22'0 0.0
2017-Nov-17 16:59N 51°15' E 004°22'0 0.0
2017-Nov-17 16:29N 51°15' E 004°22'0 0.0
2017-Nov-17 15:59N 51°15' E 004°22'0 0.0
2017-Nov-17 15:29N 51°15' E 004°22'0 0.1
2017-Nov-17 14:56N 51°15' E 004°22'0 0.0
2017-Nov-17 14:29N 51°15' E 004°22'0 0.0
2017-Nov-17 13:56N 51°15' E 004°22'0 0.0
2017-Nov-17 13:29N 51°15' E 004°22'0 0.0
2017-Nov-17 12:59N 51°15' E 004°22'0 0.0
2017-Nov-17 12:29N 51°15' E 004°22'0 0.0
2017-Nov-17 11:59N 51°15' E 004°22'0 0.4
2017-Nov-17 11:30N 51°15' E 004°22'0 0.8
2017-Nov-17 11:00N 51°15' E 004°23'0 0.0
2017-Nov-17 10:30N 51°15' E 004°23'0 0.0
2017-Nov-17 10:00N 51°15' E 004°23'0 0.0
2017-Nov-17 09:30N 51°15' E 004°23'0 0.0
2017-Nov-17 09:00N 51°15' E 004°23'0 0.0
2017-Nov-17 08:30N 51°15' E 004°23'0 0.0
2017-Nov-17 08:00N 51°15' E 004°23'0 0.0
2017-Nov-17 07:30N 51°15' E 004°23'0 0.0
2017-Nov-17 07:00N 51°15' E 004°23'0 0.0
2017-Nov-17 06:30N 51°15' E 004°23'0 0.0
2017-Nov-17 06:00N 51°15' E 004°23'0 0.0
2017-Nov-17 05:30N 51°15' E 004°23'0 0.0
2017-Nov-17 05:00N 51°15' E 004°23'0 0.0
2017-Nov-17 04:30N 51°15' E 004°23'0 0.0
2017-Nov-17 04:00N 51°15' E 004°23'0 0.0
2017-Nov-17 03:30N 51°15' E 004°23'0 0.0
2017-Nov-17 03:00N 51°15' E 004°23'0 0.0
2017-Nov-17 02:30N 51°15' E 004°23'0 0.0
2017-Nov-17 02:00N 51°15' E 004°23'0 0.0
2017-Nov-17 01:30N 51°15' E 004°23'0 0.0
2017-Nov-17 01:00N 51°15' E 004°23'0 0.0
2017-Nov-17 00:30N 51°15' E 004°23'0 0.0
2017-Nov-17 00:00N 51°15' E 004°23'0 0.0
2017-Nov-16 23:30N 51°15' E 004°23'0 0.0
2017-Nov-16 23:00N 51°15' E 004°23'0 0.0
2017-Nov-16 22:30N 51°15' E 004°23'0 0.0
2017-Nov-16 22:00N 51°15' E 004°23'0 0.0
2017-Nov-16 21:30N 51°15' E 004°23'0 0.0
2017-Nov-16 21:00N 51°15' E 004°23'0 0.0
2017-Nov-16 20:30N 51°15' E 004°23'0 0.0
2017-Nov-16 20:00N 51°15' E 004°23'0 0.0
2017-Nov-16 19:30N 51°15' E 004°23'0 0.0
2017-Nov-16 19:00N 51°15' E 004°23'0 0.0
2017-Nov-16 18:30N 51°15' E 004°23'0 0.0
2017-Nov-16 18:00N 51°15' E 004°23'0 0.0
2017-Nov-16 17:30N 51°15' E 004°23'0 0.0
2017-Nov-16 17:00N 51°15' E 004°23'0 0.0
2017-Nov-16 16:30N 51°15' E 004°23'0 0.0
2017-Nov-16 16:00N 51°15' E 004°23'0 0.0
2017-Nov-16 15:30N 51°15' E 004°23'0 0.0
2017-Nov-16 15:00N 51°15' E 004°23'0 0.0
2017-Nov-16 14:30N 51°15' E 004°23'0 0.0
2017-Nov-16 14:00N 51°15' E 004°23'0 0.0
2017-Nov-16 13:30N 51°15' E 004°23'0 0.0
2017-Nov-16 13:00N 51°15' E 004°23'0 0.0
2017-Nov-16 12:30N 51°15' E 004°23'0 0.0
2017-Nov-16 12:00N 51°15' E 004°23'0 0.0
2017-Nov-16 11:27N 51°15' E 004°23'0 0.0
2017-Nov-16 11:00N 51°15' E 004°23'0 0.0
2017-Nov-16 10:30N 51°15' E 004°23'0 0.0
2017-Nov-16 10:00N 51°15' E 004°23'0 0.0
2017-Nov-16 09:30N 51°15' E 004°23'0 0.0
2017-Nov-16 09:00N 51°15' E 004°23'0 0.0
2017-Nov-16 08:30N 51°15' E 004°23'0 0.0
2017-Nov-16 08:00N 51°15' E 004°23'0 0.0
2017-Nov-16 07:30N 51°15' E 004°23'0 0.0
2017-Nov-16 07:00N 51°15' E 004°23'0 0.0
2017-Nov-16 06:30N 51°15' E 004°23'0 0.0
2017-Nov-16 06:00N 51°15' E 004°23'0 0.3
2017-Nov-16 05:30N 51°15' E 004°23'2 4.9
2017-Nov-16 05:01N 51°17' E 004°20'4 7.9
2017-Nov-16 04:30N 51°20' E 004°18'1 1.1
2017-Nov-16 04:01N 51°21' E 004°17'0 0.0
2017-Nov-16 03:31N 51°21' E 004°17'1 1.3
2017-Nov-16 03:00N 51°21' E 004°16'2 3.4
2017-Nov-16 02:30N 51°22' E 004°14'4 8.0
2017-Nov-16 02:00N 51°22' E 004°07'611.4
2017-Nov-16 01:30N 51°26' E 004°00'612.6
2017-Nov-16 01:01N 51°21' E 003°54'611.8
2017-Nov-16 00:31N 51°22' E 003°44'510.8
2017-Nov-16 00:01N 51°26' E 003°39'5 9.5
2017-Nov-15 23:30N 51°27' E 003°31'612.5
2017-Nov-15 23:00N 51°32' E 003°25'713.2
2017-Nov-15 22:30N 51°38' E 003°20'712.4
2017-Nov-15 21:57N 51°44' E 003°15'5 6.7
2017-Nov-15 21:16N 51°49' E 003°14'0 1.8
2017-Nov-15 21:00N 51°49' E 003°14'1 0.7
2017-Nov-15 20:18N 51°49' E 003°14'2213.0
2017-Nov-15 18:39N 52°10' E 003°23'215.8
2017-Nov-15 18:30N 52°12' E 003°24'815.7
2017-Nov-15 17:59N 52°20' E 003°27'3314.0
2017-Nov-15 15:40N 52°50' E 003°48'313.6
2017-Nov-15 15:25N 52°53' E 003°52'713.4
2017-Nov-15 14:53N 52°58' E 003°60'513.3
2017-Nov-15 14:29N 53°01' E 004°06'613.3
2017-Nov-15 14:00N 53°06' E 004°15'14213.9
2017-Nov-15 03:48N 55°05' E 006°26'413.8
2017-Nov-15 03:29N 55°08' E 006°31'713.8
2017-Nov-15 03:00N 55°13' E 006°38'713.9
2017-Nov-15 02:30N 55°19' E 006°46'713.2
2017-Nov-15 02:00N 55°21' E 006°57'714.1
2017-Nov-15 01:30N 55°22' E 007°10'714.2
2017-Nov-15 01:00N 55°23' E 007°22'714.2
2017-Nov-15 00:30N 55°23' E 007°34'714.0
2017-Nov-15 00:00N 55°24' E 007°47'714.2
2017-Nov-14 23:30N 55°24' E 007°59'714.1
2017-Nov-14 23:01N 55°25' E 008°11'712.9
2017-Nov-14 22:30N 55°29' E 008°21'3 6.8
2017-Nov-14 22:00N 55°27' E 008°27'1 1.7
2017-Nov-14 21:22N 55°27' E 008°29'0 0.0
2017-Nov-14 20:52N 55°27' E 008°29'0 0.0
2017-Nov-14 19:49N 55°27' E 008°29'0 0.0
2017-Nov-14 19:19N 55°27' E 008°29'0 0.0
2017-Nov-14 18:55N 55°27' E 008°29'0 0.0
2017-Nov-14 18:25N 55°27' E 008°29'0 0.0
2017-Nov-14 17:58N 55°27' E 008°29'0 0.0
2017-Nov-14 17:25N 55°27' E 008°29'0 0.0
2017-Nov-14 16:52N 55°27' E 008°29'0 0.0
2017-Nov-14 16:28N 55°27' E 008°29'0 0.0
2017-Nov-14 15:43N 55°27' E 008°29'0 0.0
2017-Nov-14 15:28N 55°27' E 008°29'0 0.0
2017-Nov-14 14:58N 55°27' E 008°29'0 0.0
2017-Nov-14 14:28N 55°27' E 008°29'0 0.0
2017-Nov-14 13:58N 55°27' E 008°29'0 0.0
2017-Nov-14 13:28N 55°27' E 008°29'0 0.0
2017-Nov-14 12:58N 55°27' E 008°29'0 0.0
2017-Nov-14 12:25N 55°27' E 008°29'0 0.0
2017-Nov-14 11:58N 55°27' E 008°29'0 0.0
2017-Nov-14 11:16N 55°27' E 008°29'0 0.0
2017-Nov-14 10:49N 55°27' E 008°29'0 0.0
2017-Nov-14 10:19N 55°27' E 008°29'0 0.0
2017-Nov-14 09:57N 55°27' E 008°29'0 0.0
2017-Nov-14 09:16N 55°27' E 008°29'0 0.0
2017-Nov-14 08:45N 55°27' E 008°29'0 0.0
2017-Nov-14 08:16N 55°27' E 008°29'0 0.0
2017-Nov-14 08:00N 55°27' E 008°29'0 0.0
2017-Nov-14 07:16N 55°27' E 008°29'0 0.0
2017-Nov-14 06:52N 55°27' E 008°29'0 0.0
2017-Nov-14 06:16N 55°27' E 008°29'0 0.0
2017-Nov-14 05:52N 55°27' E 008°29'0 0.0
2017-Nov-14 05:25N 55°27' E 008°29'0 0.0
2017-Nov-14 04:52N 55°27' E 008°29'0 0.0
2017-Nov-14 04:22N 55°27' E 008°29'0 0.4
2017-Nov-14 03:51N 55°27' E 008°28'0 0.0
2017-Nov-14 03:24N 55°27' E 008°28'0 0.0
2017-Nov-14 02:48N 55°27' E 008°28'0 0.0
2017-Nov-14 02:24N 55°27' E 008°28'0 0.0
2017-Nov-14 01:54N 55°27' E 008°28'0 0.0
2017-Nov-14 01:24N 55°27' E 008°28'0 0.0
2017-Nov-14 00:57N 55°27' E 008°28'0 0.0
2017-Nov-14 00:27N 55°27' E 008°28'0 0.0
2017-Nov-13 23:57N 55°27' E 008°28'0 0.0
2017-Nov-13 23:27N 55°27' E 008°28'0 0.0
2017-Nov-13 22:57N 55°27' E 008°28'0 0.0
2017-Nov-13 22:27N 55°27' E 008°28'0 0.0
2017-Nov-13 01:03N 55°27' E 008°28'0 0.0
2017-Nov-13 00:45N 55°27' E 008°28'0 0.0
2017-Nov-13 00:18N 55°27' E 008°28'0 0.0
2017-Nov-13 00:00N 55°27' E 008°28'0 0.0
2017-Nov-12 23:15N 55°27' E 008°28'  
Track history (hours):
 
Tides and Currents Weather Stations Pressure Air Temp Water Temp Dewpoint Dewpoint Depression Visibility Wind Speed Wind Dir Waves Ship Positions

Eemslift Nelli

Last reported at 2017-Nov-22 22:53 UTC. Time now 2017-Nov-23 03:25 UTC.
Position N 43°51' W 008°04'.

Length 111 m; draft 5.6 m.

Type: Cargo ship. MMSI: 244790607.

Date/timePositionNaut miles runAvg speedWind from/ knotsBaromVisibWave heightAir tempDewpointWater temp
2017-Nov-22 22:53N 43°51' W 008°04'411.0
2017-Nov-22 22:30N 43°51' W 007°58'611.1
2017-Nov-22 21:56N 43°52' W 007°50'511.4
2017-Nov-22 21:30N 43°52' W 007°43'612.5
2017-Nov-22 21:00N 43°52' W 007°34'713.1
2017-Nov-22 20:30N 43°52' W 007°25'713.1
2017-Nov-22 20:00N 43°52' W 007°16'611.6
2017-Nov-22 19:30N 43°52' W 007°08'  
2017-Nov-20 00:29N 48°05' W 005°55'612.2
2017-Nov-19 23:58N 48°11' W 005°56'612.6
2017-Nov-19 23:28N 48°18' W 005°57'613.0
2017-Nov-19 22:59N 48°24' W 005°56'613.2
2017-Nov-19 22:30N 48°30' W 005°56'713.6
2017-Nov-19 21:59N 48°37' W 005°56'713.6
2017-Nov-19 21:30N 48°44' W 005°54'714.0
2017-Nov-19 21:00N 48°50' W 005°49'713.2
2017-Nov-19 20:29N 48°55' W 005°42'713.3
2017-Nov-19 19:58N 48°58' W 005°33'712.9
2017-Nov-19 19:26N 49°01' W 005°24'612.5
2017-Nov-19 18:58N 49°04' W 005°16'611.8
2017-Nov-19 18:28N 49°07' W 005°08'611.6
2017-Nov-19 17:57N 49°09' W 004°60'1611.1
2017-Nov-19 16:30N 49°18' W 004°38'511.1
2017-Nov-19 16:00N 49°21' W 004°31'1011.5
2017-Nov-19 15:07N 49°26' W 004°18'3913.5
2017-Nov-19 12:16N 49°47' W 003°28'414.3
2017-Nov-19 12:00N 49°49' W 003°23'814.1
2017-Nov-19 11:27N 49°52' W 003°12'613.7
2017-Nov-19 11:01N 49°56' W 003°04'713.2
2017-Nov-19 10:30N 49°59' W 002°55'612.6
2017-Nov-19 10:00N 50°01' W 002°46'611.9
2017-Nov-19 09:30N 50°03' W 002°37'611.1
2017-Nov-19 08:56N 50°05' W 002°28'1110.2
2017-Nov-19 07:51N 50°09' W 002°12'5 9.8
2017-Nov-19 07:23N 50°10' W 002°05'410.0
2017-Nov-19 07:00N 50°10' W 001°59'510.7
2017-Nov-19 06:30N 50°12' W 001°51'611.2
2017-Nov-19 06:00N 50°13' W 001°42'611.9
2017-Nov-19 05:30N 50°14' W 001°33'612.9
2017-Nov-19 05:00N 50°16' W 001°23'3715.3
2017-Nov-19 02:38N 50°26' W 000°28'215.1
2017-Nov-19 02:30N 50°26' W 000°25'714.6
2017-Nov-19 02:00N 50°28' W 000°14'714.3
2017-Nov-19 01:30N 50°30' W 000°03'713.9
2017-Nov-19 01:00N 50°32' E 000°07'713.7
2017-Nov-19 00:30N 50°33' E 000°18'713.2
2017-Nov-19 00:00N 50°35' E 000°28'612.6
2017-Nov-18 23:31N 50°37' E 000°37'612.4
2017-Nov-18 23:00N 50°41' E 000°45'612.2
2017-Nov-18 22:30N 50°44' E 000°53'611.9
2017-Nov-18 22:01N 50°47' E 001°01'612.1
2017-Nov-18 21:30N 50°50' E 001°09'712.8
2017-Nov-18 20:58N 50°55' E 001°18'714.5
2017-Nov-18 20:30N 50°60' E 001°24'816.0
2017-Nov-18 20:00N 51°05' E 001°33'815.8
2017-Nov-18 19:30N 51°11' E 001°42'815.2
2017-Nov-18 19:00N 51°17' E 001°50'714.2
2017-Nov-18 18:30N 51°23' E 001°57'510.1
2017-Nov-18 18:00N 51°23' E 002°05'613.0
2017-Nov-18 17:30N 51°20' E 002°14'611.9
2017-Nov-18 17:00N 51°21' E 002°23'612.1
2017-Nov-18 16:30N 51°23' E 002°33'712.8
2017-Nov-18 15:59N 51°22' E 002°44'612.4
2017-Nov-18 15:30N 51°24' E 002°53'713.0
2017-Nov-18 15:00N 51°25' E 003°03'612.9
2017-Nov-18 14:30N 51°25' E 003°13'612.9
2017-Nov-18 14:00N 51°25' E 003°24'612.7
2017-Nov-18 13:30N 51°26' E 003°34'4 7.9
2017-Nov-18 13:00N 51°26' E 003°40'510.3
2017-Nov-18 12:30N 51°22' E 003°45'510.9
2017-Nov-18 12:00N 51°21' E 003°53'611.2
2017-Nov-18 11:30N 51°26' E 003°59'510.0
2017-Nov-18 11:00N 51°22' E 004°04'510.9
2017-Nov-18 10:30N 51°23' E 004°13'4 7.4
2017-Nov-18 10:00N 51°21' E 004°17'0 0.0
2017-Nov-18 09:31N 51°21' E 004°17'1 1.7
2017-Nov-18 09:00N 51°20' E 004°18'3 6.0
2017-Nov-18 08:30N 51°18' E 004°20'3 6.0
2017-Nov-18 08:00N 51°15' E 004°22'0 0.1
2017-Nov-18 07:26N 51°15' E 004°22'0 0.0
2017-Nov-18 06:59N 51°15' E 004°22'0 0.0
2017-Nov-18 06:29N 51°15' E 004°22'0 0.0
2017-Nov-18 05:59N 51°15' E 004°22'0 0.0
2017-Nov-18 05:29N 51°15' E 004°22'0 0.0
2017-Nov-18 04:59N 51°15' E 004°22'0 0.0
2017-Nov-18 04:29N 51°15' E 004°22'0 0.0
2017-Nov-18 03:59N 51°15' E 004°22'0 0.0
2017-Nov-18 03:29N 51°15' E 004°22'0 0.0
2017-Nov-18 02:59N 51°15' E 004°22'0 0.0
2017-Nov-18 02:29N 51°15' E 004°22'0 0.0
2017-Nov-18 01:59N 51°15' E 004°22'0 0.0
2017-Nov-18 01:29N 51°15' E 004°22'0 0.0
2017-Nov-18 00:59N 51°15' E 004°22'0 0.0
2017-Nov-18 00:29N 51°15' E 004°22'0 0.0
2017-Nov-17 23:59N 51°15' E 004°22'0 0.0
2017-Nov-17 23:29N 51°15' E 004°22'0 0.0
2017-Nov-17 22:59N 51°15' E 004°22'0 0.0
2017-Nov-17 22:29N 51°15' E 004°22'0 0.0
2017-Nov-17 21:59N 51°15' E 004°22'0 0.0
2017-Nov-17 21:29N 51°15' E 004°22'0 0.0
2017-Nov-17 20:59N 51°15' E 004°22'0 0.0
2017-Nov-17 20:29N 51°15' E 004°22'0 0.0
2017-Nov-17 19:59N 51°15' E 004°22'0 0.0
2017-Nov-17 19:29N 51°15' E 004°22'0 0.0
2017-Nov-17 18:59N 51°15' E 004°22'0 0.0
2017-Nov-17 18:29N 51°15' E 004°22'0 0.0
2017-Nov-17 17:59N 51°15' E 004°22'0 0.0
2017-Nov-17 17:29N 51°15' E 004°22'0 0.0
2017-Nov-17 16:59N 51°15' E 004°22'0 0.0
2017-Nov-17 16:29N 51°15' E 004°22'0 0.0
2017-Nov-17 15:59N 51°15' E 004°22'0 0.0
2017-Nov-17 15:29N 51°15' E 004°22'0 0.1
2017-Nov-17 14:56N 51°15' E 004°22'0 0.0
2017-Nov-17 14:29N 51°15' E 004°22'0 0.0
2017-Nov-17 13:56N 51°15' E 004°22'0 0.0
2017-Nov-17 13:29N 51°15' E 004°22'0 0.0
2017-Nov-17 12:59N 51°15' E 004°22'0 0.0
2017-Nov-17 12:29N 51°15' E 004°22'0 0.0
2017-Nov-17 11:59N 51°15' E 004°22'0 0.4
2017-Nov-17 11:30N 51°15' E 004°22'0 0.8
2017-Nov-17 11:00N 51°15' E 004°23'0 0.0
2017-Nov-17 10:30N 51°15' E 004°23'0 0.0
2017-Nov-17 10:00N 51°15' E 004°23'0 0.0
2017-Nov-17 09:30N 51°15' E 004°23'0 0.0
2017-Nov-17 09:00N 51°15' E 004°23'0 0.0
2017-Nov-17 08:30N 51°15' E 004°23'0 0.0
2017-Nov-17 08:00N 51°15' E 004°23'0 0.0
2017-Nov-17 07:30N 51°15' E 004°23'0 0.0
2017-Nov-17 07:00N 51°15' E 004°23'0 0.0
2017-Nov-17 06:30N 51°15' E 004°23'0 0.0
2017-Nov-17 06:00N 51°15' E 004°23'0 0.0
2017-Nov-17 05:30N 51°15' E 004°23'0 0.0
2017-Nov-17 05:00N 51°15' E 004°23'0 0.0
2017-Nov-17 04:30N 51°15' E 004°23'0 0.0
2017-Nov-17 04:00N 51°15' E 004°23'0 0.0
2017-Nov-17 03:30N 51°15' E 004°23'0 0.0
2017-Nov-17 03:00N 51°15' E 004°23'0 0.0
2017-Nov-17 02:30N 51°15' E 004°23'0 0.0
2017-Nov-17 02:00N 51°15' E 004°23'0 0.0
2017-Nov-17 01:30N 51°15' E 004°23'0 0.0
2017-Nov-17 01:00N 51°15' E 004°23'0 0.0
2017-Nov-17 00:30N 51°15' E 004°23'0 0.0
2017-Nov-17 00:00N 51°15' E 004°23'0 0.0
2017-Nov-16 23:30N 51°15' E 004°23'0 0.0
2017-Nov-16 23:00N 51°15' E 004°23'0 0.0
2017-Nov-16 22:30N 51°15' E 004°23'0 0.0
2017-Nov-16 22:00N 51°15' E 004°23'0 0.0
2017-Nov-16 21:30N 51°15' E 004°23'0 0.0
2017-Nov-16 21:00N 51°15' E 004°23'0 0.0
2017-Nov-16 20:30N 51°15' E 004°23'0 0.0
2017-Nov-16 20:00N 51°15' E 004°23'0 0.0
2017-Nov-16 19:30N 51°15' E 004°23'0 0.0
2017-Nov-16 19:00N 51°15' E 004°23'0 0.0
2017-Nov-16 18:30N 51°15' E 004°23'0 0.0
2017-Nov-16 18:00N 51°15' E 004°23'0 0.0
2017-Nov-16 17:30N 51°15' E 004°23'0 0.0
2017-Nov-16 17:00N 51°15' E 004°23'0 0.0
2017-Nov-16 16:30N 51°15' E 004°23'0 0.0
2017-Nov-16 16:00N 51°15' E 004°23'0 0.0
2017-Nov-16 15:30N 51°15' E 004°23'0 0.0
2017-Nov-16 15:00N 51°15' E 004°23'0 0.0
2017-Nov-16 14:30N 51°15' E 004°23'0 0.0
2017-Nov-16 14:00N 51°15' E 004°23'0 0.0
2017-Nov-16 13:30N 51°15' E 004°23'0 0.0
2017-Nov-16 13:00N 51°15' E 004°23'0 0.0
2017-Nov-16 12:30N 51°15' E 004°23'0 0.0
2017-Nov-16 12:00N 51°15' E 004°23'0 0.0
2017-Nov-16 11:27N 51°15' E 004°23'0 0.0
2017-Nov-16 11:00N 51°15' E 004°23'0 0.0
2017-Nov-16 10:30N 51°15' E 004°23'0 0.0
2017-Nov-16 10:00N 51°15' E 004°23'0 0.0
2017-Nov-16 09:30N 51°15' E 004°23'0 0.0
2017-Nov-16 09:00N 51°15' E 004°23'0 0.0
2017-Nov-16 08:30N 51°15' E 004°23'0 0.0
2017-Nov-16 08:00N 51°15' E 004°23'0 0.0
2017-Nov-16 07:30N 51°15' E 004°23'0 0.0
2017-Nov-16 07:00N 51°15' E 004°23'0 0.0
2017-Nov-16 06:30N 51°15' E 004°23'0 0.0
2017-Nov-16 06:00N 51°15' E 004°23'0 0.3
2017-Nov-16 05:30N 51°15' E 004°23'2 4.9
2017-Nov-16 05:01N 51°17' E 004°20'4 7.9
2017-Nov-16 04:30N 51°20' E 004°18'1 1.1
2017-Nov-16 04:01N 51°21' E 004°17'0 0.0
2017-Nov-16 03:31N 51°21' E 004°17'1 1.3
2017-Nov-16 03:00N 51°21' E 004°16'2 3.4
2017-Nov-16 02:30N 51°22' E 004°14'4 8.0
2017-Nov-16 02:00N 51°22' E 004°07'611.4
2017-Nov-16 01:30N 51°26' E 004°00'612.6
2017-Nov-16 01:01N 51°21' E 003°54'611.8
2017-Nov-16 00:31N 51°22' E 003°44'510.8
2017-Nov-16 00:01N 51°26' E 003°39'5 9.5
2017-Nov-15 23:30N 51°27' E 003°31'612.5
2017-Nov-15 23:00N 51°32' E 003°25'713.2
2017-Nov-15 22:30N 51°38' E 003°20'712.4
2017-Nov-15 21:57N 51°44' E 003°15'5 6.7
2017-Nov-15 21:16N 51°49' E 003°14'0 1.8
2017-Nov-15 21:00N 51°49' E 003°14'1 0.7
2017-Nov-15 20:18N 51°49' E 003°14'2213.0
2017-Nov-15 18:39N 52°10' E 003°23'215.8
2017-Nov-15 18:30N 52°12' E 003°24'815.7
2017-Nov-15 17:59N 52°20' E 003°27'3314.0
2017-Nov-15 15:40N 52°50' E 003°48'313.6
2017-Nov-15 15:25N 52°53' E 003°52'713.4
2017-Nov-15 14:53N 52°58' E 003°60'513.3
2017-Nov-15 14:29N 53°01' E 004°06'613.3
2017-Nov-15 14:00N 53°06' E 004°15'14213.9
2017-Nov-15 03:48N 55°05' E 006°26'413.8
2017-Nov-15 03:29N 55°08' E 006°31'713.8
2017-Nov-15 03:00N 55°13' E 006°38'713.9
2017-Nov-15 02:30N 55°19' E 006°46'713.2
2017-Nov-15 02:00N 55°21' E 006°57'714.1
2017-Nov-15 01:30N 55°22' E 007°10'714.2
2017-Nov-15 01:00N 55°23' E 007°22'714.2
2017-Nov-15 00:30N 55°23' E 007°34'714.0
2017-Nov-15 00:00N 55°24' E 007°47'714.2
2017-Nov-14 23:30N 55°24' E 007°59'714.1
2017-Nov-14 23:01N 55°25' E 008°11'712.9
2017-Nov-14 22:30N 55°29' E 008°21'3 6.8
2017-Nov-14 22:00N 55°27' E 008°27'1 1.7
2017-Nov-14 21:22N 55°27' E 008°29'0 0.0
2017-Nov-14 20:52N 55°27' E 008°29'0 0.0
2017-Nov-14 19:49N 55°27' E 008°29'0 0.0
2017-Nov-14 19:19N 55°27' E 008°29'0 0.0
2017-Nov-14 18:55N 55°27' E 008°29'0 0.0
2017-Nov-14 18:25N 55°27' E 008°29'0 0.0
2017-Nov-14 17:58N 55°27' E 008°29'0 0.0
2017-Nov-14 17:25N 55°27' E 008°29'0 0.0
2017-Nov-14 16:52N 55°27' E 008°29'0 0.0
2017-Nov-14 16:28N 55°27' E 008°29'0 0.0
2017-Nov-14 15:43N 55°27' E 008°29'0 0.0
2017-Nov-14 15:28N 55°27' E 008°29'0 0.0
2017-Nov-14 14:58N 55°27' E 008°29'0 0.0
2017-Nov-14 14:28N 55°27' E 008°29'0 0.0
2017-Nov-14 13:58N 55°27' E 008°29'0 0.0
2017-Nov-14 13:28N 55°27' E 008°29'0 0.0
2017-Nov-14 12:58N 55°27' E 008°29'0 0.0
2017-Nov-14 12:25N 55°27' E 008°29'0 0.0
2017-Nov-14 11:58N 55°27' E 008°29'0 0.0
2017-Nov-14 11:16N 55°27' E 008°29'0 0.0
2017-Nov-14 10:49N 55°27' E 008°29'0 0.0
2017-Nov-14 10:19N 55°27' E 008°29'0 0.0
2017-Nov-14 09:57N 55°27' E 008°29'0 0.0
2017-Nov-14 09:16N 55°27' E 008°29'0 0.0
2017-Nov-14 08:45N 55°27' E 008°29'0 0.0
2017-Nov-14 08:16N 55°27' E 008°29'0 0.0
2017-Nov-14 08:00N 55°27' E 008°29'0 0.0
2017-Nov-14 07:16N 55°27' E 008°29'0 0.0
2017-Nov-14 06:52N 55°27' E 008°29'0 0.0
2017-Nov-14 06:16N 55°27' E 008°29'0 0.0
2017-Nov-14 05:52N 55°27' E 008°29'0 0.0
2017-Nov-14 05:25N 55°27' E 008°29'0 0.0
2017-Nov-14 04:52N 55°27' E 008°29'0 0.0
2017-Nov-14 04:22N 55°27' E 008°29'0 0.4
2017-Nov-14 03:51N 55°27' E 008°28'0 0.0
2017-Nov-14 03:24N 55°27' E 008°28'0 0.0
2017-Nov-14 02:48N 55°27' E 008°28'0 0.0
2017-Nov-14 02:24N 55°27' E 008°28'0 0.0
2017-Nov-14 01:54N 55°27' E 008°28'0 0.0
2017-Nov-14 01:24N 55°27' E 008°28'0 0.0
2017-Nov-14 00:57N 55°27' E 008°28'0 0.0
2017-Nov-14 00:27N 55°27' E 008°28'0 0.0
2017-Nov-13 23:57N 55°27' E 008°28'0 0.0
2017-Nov-13 23:27N 55°27' E 008°28'0 0.0
2017-Nov-13 22:57N 55°27' E 008°28'0 0.0
2017-Nov-13 22:27N 55°27' E 008°28'0 0.0
2017-Nov-13 01:03N 55°27' E 008°28'0 0.0
2017-Nov-13 00:45N 55°27' E 008°28'0 0.0
2017-Nov-13 00:18N 55°27' E 008°28'0 0.0
2017-Nov-13 00:00N 55°27' E 008°28'0 0.0
2017-Nov-12 23:15N 55°27' E 008°28'  

Dump ship's entire track history